Koninklijk Nederlands Meteorologisch Instituut; Ministerie van Verkeer en Waterstaat

 
Weer
Nederlandse vliegveldverwachtingen (TAF)
ZCZC
FC040500 EHWO     WOENSDRECHT/WOENSDRECHT   NLD   19 m.
TAF EHWO 040554Z 0406/0418 23007KT FEW025
    BECMG 0410/0412 30016KT
    TEMPO 0410/0418 28023G33KT 4500 SHRAGS SCT012 SCT018CB
    BKN020
    PROB30 TEMPO 0413/0418 3500 TSRAGS SCT008 SCT015CB=

ZCZC
FC040500 EHVK     VOLKEL/VOLKEL   NLD   21 m.
TAF EHVK 040554Z 0406/0418 23012KT CAVOK
    BECMG 0411/0413 28016KT
    TEMPO 0410/0418 28020G30KT 4500 SHRAGS SCT012 SCT018CB
    BKN020
    PROB30 TEMPO 0413/0418 3500 TSRAGS SCT008 SCT015CB=

ZCZC
FC040500 EHLW     LEEUWARDEN/LEEUWARDEN   NLD   1 m.
TAF EHLW 040524Z 0406/0418 26020KT 9999 SCT025
    BECMG 0407/0410 28020G30KT
    TEMPO 0410/0417 4000 -SHRA SCT018CB BKN020
    PROB30 TEMPO 0410/0417 28025G35KT 2000 TSRAGS SCT010
    SCT015CB
    BECMG 0414/0416 30020KT=

ZCZC
FC040500 EHGR     GILZE-RIJEN/GILZE-RIJEN   NLD   14 m.
TAF EHGR 040553Z 0406/0418 24007KT CAVOK
    BECMG 0410/0412 30016KT
    TEMPO 0410/0418 28020G30KT 4500 SHRAGS SCT012 SCT018CB
    BKN020
    PROB30 TEMPO 0413/0418 3500 TSRAGS SCT008 SCT015CB=

ZCZC
FT040500 EHAM     AMSTERDAM/SCHIPHOL   NLD   -3 m.
TAF EHAM 040455Z 0406/0512 27017G27KT 9999 SCT020
    TEMPO 0406/0420 29021G32KT 6000 SHRAGS SCT012 SCT018CB
    BKN030
    PROB30 TEMPO 0409/0418 4000 TSRAGS
    BECMG 0414/0417 32018G28KT
    BECMG 0421/0424 32013KT
    BECMG 0503/0506 31008KT=

ZCZC
FT040500 EHBK     MAASTRICHT/MAASTRICHT-AACHEN   NLD   114 m.
TAF EHBK 040448Z 0406/0512 23010KT 9999 SCT025
    BECMG 0408/0411 27015G25KT
    TEMPO 0412/0421 5000 SHRAGS SCT020CB BKN030
    PROB30 TEMPO 0412/0419 29020G30KT 3000 TSRAGS BKN010
    SCT015CB
    BECMG 0418/0421 29010KT=

ZCZC
FT040500 EHGG     GRONINGEN/EELDE   NLD   5 m.
TAF EHGG 040448Z 0406/0512 23010KT 9999 SCT025
    TEMPO 0406/0418 5000 SHRAGS SCT020CB BKN030
    PROB30 TEMPO 0406/0418 29022G34KT 3000 TSRAGS BKN010
    SCT015CB
    BECMG 0408/0411 28017G27KT
    BECMG 0419/0422 31014KT
    BECMG 0422/0501 30006KT=

ZCZC
FT040500 EHRD     ROTTERDAM/THE HAGUE AIRPORT   NLD   -5 m.
TAF EHRD 040458Z 0406/0512 27016G26KT 9999 SCT020
    TEMPO 0406/0420 29020G30KT 6000 SHRAGS SCT012 SCT018CB
    BKN030
    PROB30 TEMPO 0409/0418 4000 TSRAGS
    BECMG 0414/0417 32017G27KT
    BECMG 0421/0424 32012KT
    BECMG 0503/0506 31007KT=

ZCZC
FT040500 EHEH     EINDHOVEN/EINDHOVEN   NLD   22 m.
TAF EHEH 040553Z 0406/0512 22012KT CAVOK
    TEMPO 0410/0418 28020G30KT 4500 SHRAGS SCT012 SCT018CB
    BKN020
    BECMG 0411/0413 28016KT
    PROB30 TEMPO 0413/0419 3500 TSRAGS SCT008 SCT015CB
    BECMG 0421/0500 31012KT
    BECMG 0503/0506 32007KT=

ZCZC
FC040600 EHKD     DE KOOY/DE KOOY   NLD   1 m.
TAF EHKD 040522Z 0406/0418 27020KT 9999 SCT025
    BECMG 0406/0409 28020G30KT
    TEMPO 0410/0417 4000 -SHRA SCT018CB BKN020
    PROB30 TEMPO 0410/0417 28025G35KT 2000 TSRAGS SCT010
    SCT015CB=